sensor_id;sensor_type;location;lat;lon;timestamp;P1;durP1;ratioP1;P2;durP2;ratioP2
57337;SDS011;43173;50.980;18.204;2022-08-21T00:01:31;18.50;;;12.40;;
57337;SDS011;43173;50.980;18.204;2022-08-21T00:03:56;16.80;;;11.00;;
57337;SDS011;43173;50.980;18.204;2022-08-21T00:06:22;19.10;;;12.00;;
57337;SDS011;43173;50.980;18.204;2022-08-21T00:08:50;18.60;;;12.20;;
57337;SDS011;43173;50.980;18.204;2022-08-21T00:11:16;19.00;;;12.60;;
57337;SDS011;43173;50.980;18.204;2022-08-21T00:13:43;15.70;;;11.70;;
57337;SDS011;43173;50.980;18.204;2022-08-21T00:16:08;16.00;;;11.60;;
57337;SDS011;43173;50.980;18.204;2022-08-21T00:18:34;16.60;;;11.30;;
57337;SDS011;43173;50.980;18.204;2022-08-21T00:21:02;18.10;;;12.40;;
57337;SDS011;43173;50.980;18.204;2022-08-21T00:23:28;17.90;;;12.90;;
57337;SDS011;43173;50.980;18.204;2022-08-21T00:25:53;18.20;;;13.20;;
57337;SDS011;43173;50.980;18.204;2022-08-21T00:28:19;19.40;;;14.00;;
57337;SDS011;43173;50.980;18.204;2022-08-21T00:30:45;22.90;;;13.90;;
57337;SDS011;43173;50.980;18.204;2022-08-21T00:33:11;20.10;;;12.60;;
57337;SDS011;43173;50.980;18.204;2022-08-21T00:35:38;18.20;;;12.10;;
57337;SDS011;43173;50.980;18.204;2022-08-21T00:38:05;17.10;;;11.80;;
57337;SDS011;43173;50.980;18.204;2022-08-21T00:40:44;17.70;;;11.80;;
57337;SDS011;43173;50.980;18.204;2022-08-21T00:43:13;16.70;;;11.80;;
57337;SDS011;43173;50.980;18.204;2022-08-21T00:45:41;24.10;;;13.80;;
57337;SDS011;43173;50.980;18.204;2022-08-21T00:48:07;23.20;;;13.70;;
57337;SDS011;43173;50.980;18.204;2022-08-21T00:50:34;24.30;;;14.60;;
57337;SDS011;43173;50.980;18.204;2022-08-21T00:53:15;29.80;;;15.60;;
57337;SDS011;43173;50.980;18.204;2022-08-21T00:55:41;29.70;;;15.50;;
57337;SDS011;43173;50.980;18.204;2022-08-21T00:58:07;26.20;;;15.00;;
57337;SDS011;43173;50.980;18.204;2022-08-21T01:00:36;23.40;;;14.50;;
57337;SDS011;43173;50.980;18.204;2022-08-21T01:03:07;25.10;;;14.10;;
57337;SDS011;43173;50.980;18.204;2022-08-21T01:05:35;26.30;;;14.90;;
57337;SDS011;43173;50.980;18.204;2022-08-21T01:08:02;22.70;;;14.20;;
57337;SDS011;43173;50.980;18.204;2022-08-21T01:10:29;25.90;;;14.70;;
57337;SDS011;43173;50.980;18.204;2022-08-21T01:12:55;28.40;;;15.80;;
57337;SDS011;43173;50.980;18.204;2022-08-21T01:15:27;20.30;;;13.60;;
57337;SDS011;43173;50.980;18.204;2022-08-21T01:17:55;23.70;;;15.00;;
57337;SDS011;43173;50.980;18.204;2022-08-21T01:20:21;22.70;;;14.30;;
57337;SDS011;43173;50.980;18.204;2022-08-21T01:22:47;25.40;;;13.70;;
57337;SDS011;43173;50.980;18.204;2022-08-21T01:25:14;22.90;;;14.50;;
57337;SDS011;43173;50.980;18.204;2022-08-21T01:27:41;22.70;;;13.50;;
57337;SDS011;43173;50.980;18.204;2022-08-21T01:30:12;26.30;;;14.10;;
57337;SDS011;43173;50.980;18.204;2022-08-21T01:32:40;22.20;;;13.80;;
57337;SDS011;43173;50.980;18.204;2022-08-21T01:35:06;19.20;;;12.60;;
57337;SDS011;43173;50.980;18.204;2022-08-21T01:37:33;21.80;;;12.70;;
57337;SDS011;43173;50.980;18.204;2022-08-21T01:39:59;21.30;;;12.30;;
57337;SDS011;43173;50.980;18.204;2022-08-21T01:42:25;18.90;;;12.60;;
57337;SDS011;43173;50.980;18.204;2022-08-21T01:44:51;20.30;;;13.70;;
57337;SDS011;43173;50.980;18.204;2022-08-21T01:47:18;22.40;;;14.10;;
57337;SDS011;43173;50.980;18.204;2022-08-21T01:49:44;23.60;;;14.30;;
57337;SDS011;43173;50.980;18.204;2022-08-21T01:52:11;22.80;;;13.60;;
57337;SDS011;43173;50.980;18.204;2022-08-21T01:54:37;25.10;;;14.20;;
57337;SDS011;43173;50.980;18.204;2022-08-21T01:57:03;24.40;;;14.70;;
57337;SDS011;43173;50.980;18.204;2022-08-21T01:59:30;26.00;;;15.00;;
57337;SDS011;43173;50.980;18.204;2022-08-21T02:01:56;24.50;;;15.80;;
57337;SDS011;43173;50.980;18.204;2022-08-21T02:04:22;26.20;;;15.60;;
57337;SDS011;43173;50.980;18.204;2022-08-21T02:06:48;31.10;;;17.20;;
57337;SDS011;43173;50.980;18.204;2022-08-21T02:09:14;29.00;;;16.80;;
57337;SDS011;43173;50.980;18.204;2022-08-21T02:11:40;31.30;;;16.60;;
57337;SDS011;43173;50.980;18.204;2022-08-21T02:14:07;30.50;;;16.60;;
57337;SDS011;43173;50.980;18.204;2022-08-21T02:16:35;27.80;;;16.00;;
57337;SDS011;43173;50.980;18.204;2022-08-21T02:19:01;29.00;;;17.00;;
57337;SDS011;43173;50.980;18.204;2022-08-21T02:21:27;30.40;;;17.70;;
57337;SDS011;43173;50.980;18.204;2022-08-21T02:23:52;32.50;;;19.20;;
57337;SDS011;43173;50.980;18.204;2022-08-21T02:26:18;29.20;;;19.90;;
57337;SDS011;43173;50.980;18.204;2022-08-21T02:28:43;33.00;;;19.10;;
57337;SDS011;43173;50.980;18.204;2022-08-21T02:31:10;28.10;;;17.40;;
57337;SDS011;43173;50.980;18.204;2022-08-21T02:33:36;28.20;;;18.00;;
57337;SDS011;43173;50.980;18.204;2022-08-21T02:36:03;24.00;;;15.80;;
57337;SDS011;43173;50.980;18.204;2022-08-21T02:38:30;23.70;;;15.70;;
57337;SDS011;43173;50.980;18.204;2022-08-21T02:40:58;26.90;;;17.90;;
57337;SDS011;43173;50.980;18.204;2022-08-21T02:43:25;32.00;;;17.40;;
57337;SDS011;43173;50.980;18.204;2022-08-21T02:45:53;26.80;;;17.50;;
57337;SDS011;43173;50.980;18.204;2022-08-21T02:48:21;33.40;;;18.40;;
57337;SDS011;43173;50.980;18.204;2022-08-21T02:50:54;26.20;;;16.60;;
57337;SDS011;43173;50.980;18.204;2022-08-21T02:53:27;24.50;;;15.60;;
57337;SDS011;43173;50.980;18.204;2022-08-21T02:55:54;20.70;;;15.10;;
57337;SDS011;43173;50.980;18.204;2022-08-21T02:58:24;20.10;;;13.90;;
57337;SDS011;43173;50.980;18.204;2022-08-21T03:00:53;21.60;;;14.30;;
57337;SDS011;43173;50.980;18.204;2022-08-21T03:03:19;18.10;;;12.50;;
57337;SDS011;43173;50.980;18.204;2022-08-21T03:05:46;16.20;;;11.70;;
57337;SDS011;43173;50.980;18.204;2022-08-21T03:08:12;13.10;;;9.50;;
57337;SDS011;43173;50.980;18.204;2022-08-21T03:10:41;14.00;;;9.60;;
57337;SDS011;43173;50.980;18.204;2022-08-21T03:13:09;15.10;;;9.10;;
57337;SDS011;43173;50.980;18.204;2022-08-21T03:15:35;12.20;;;8.70;;
57337;SDS011;43173;50.980;18.204;2022-08-21T03:18:01;13.60;;;8.20;;
57337;SDS011;43173;50.980;18.204;2022-08-21T03:20:28;9.60;;;6.60;;
57337;SDS011;43173;50.980;18.204;2022-08-21T03:22:56;11.80;;;6.90;;
57337;SDS011;43173;50.980;18.204;2022-08-21T03:25:22;9.60;;;6.70;;
57337;SDS011;43173;50.980;18.204;2022-08-21T03:27:49;9.30;;;6.30;;
57337;SDS011;43173;50.980;18.204;2022-08-21T03:30:16;10.30;;;6.20;;
57337;SDS011;43173;50.980;18.204;2022-08-21T03:32:43;9.50;;;5.70;;
57337;SDS011;43173;50.980;18.204;2022-08-21T03:35:12;10.80;;;5.60;;
57337;SDS011;43173;50.980;18.204;2022-08-21T03:37:38;9.30;;;5.40;;
57337;SDS011;43173;50.980;18.204;2022-08-21T03:40:08;9.80;;;4.90;;
57337;SDS011;43173;50.980;18.204;2022-08-21T03:42:34;8.20;;;5.40;;
57337;SDS011;43173;50.980;18.204;2022-08-21T03:45:00;9.90;;;5.30;;
57337;SDS011;43173;50.980;18.204;2022-08-21T03:47:26;6.40;;;4.70;;
57337;SDS011;43173;50.980;18.204;2022-08-21T03:49:52;8.90;;;4.60;;
57337;SDS011;43173;50.980;18.204;2022-08-21T03:52:18;8.60;;;4.40;;
57337;SDS011;43173;50.980;18.204;2022-08-21T03:54:44;11.70;;;4.70;;
57337;SDS011;43173;50.980;18.204;2022-08-21T03:57:10;8.50;;;4.60;;
57337;SDS011;43173;50.980;18.204;2022-08-21T03:59:36;7.80;;;5.00;;
57337;SDS011;43173;50.980;18.204;2022-08-21T04:02:03;9.40;;;5.10;;
57337;SDS011;43173;50.980;18.204;2022-08-21T04:04:30;11.40;;;5.00;;
57337;SDS011;43173;50.980;18.204;2022-08-21T04:06:56;8.30;;;5.00;;
57337;SDS011;43173;50.980;18.204;2022-08-21T04:09:23;11.60;;;5.40;;
57337;SDS011;43173;50.980;18.204;2022-08-21T04:11:49;12.90;;;5.20;;
57337;SDS011;43173;50.980;18.204;2022-08-21T04:14:15;6.90;;;5.00;;
57337;SDS011;43173;50.980;18.204;2022-08-21T04:16:41;7.30;;;4.80;;
57337;SDS011;43173;50.980;18.204;2022-08-21T04:19:08;11.90;;;5.40;;
57337;SDS011;43173;50.980;18.204;2022-08-21T04:21:35;10.40;;;5.70;;
57337;SDS011;43173;50.980;18.204;2022-08-21T04:24:01;10.30;;;5.00;;
57337;SDS011;43173;50.980;18.204;2022-08-21T04:26:27;11.20;;;5.30;;
57337;SDS011;43173;50.980;18.204;2022-08-21T04:28:53;9.20;;;5.30;;
57337;SDS011;43173;50.980;18.204;2022-08-21T04:31:21;8.90;;;5.80;;
57337;SDS011;43173;50.980;18.204;2022-08-21T04:33:46;11.00;;;6.20;;
57337;SDS011;43173;50.980;18.204;2022-08-21T04:36:12;9.90;;;5.50;;
57337;SDS011;43173;50.980;18.204;2022-08-21T04:38:38;8.60;;;5.00;;
57337;SDS011;43173;50.980;18.204;2022-08-21T04:41:03;9.50;;;5.70;;
57337;SDS011;43173;50.980;18.204;2022-08-21T04:43:31;10.10;;;6.40;;
57337;SDS011;43173;50.980;18.204;2022-08-21T04:45:58;9.10;;;6.00;;
57337;SDS011;43173;50.980;18.204;2022-08-21T04:48:26;8.60;;;6.10;;
57337;SDS011;43173;50.980;18.204;2022-08-21T04:56:25;9.90;;;4.80;;
57337;SDS011;43173;50.980;18.204;2022-08-21T04:58:54;11.50;;;5.50;;
57337;SDS011;43173;50.980;18.204;2022-08-21T05:01:22;8.10;;;5.20;;
57337;SDS011;43173;50.980;18.204;2022-08-21T05:03:50;8.70;;;5.40;;
57337;SDS011;43173;50.980;18.204;2022-08-21T05:06:19;10.60;;;5.50;;
57337;SDS011;43173;50.980;18.204;2022-08-21T05:08:47;10.50;;;5.60;;
57337;SDS011;43173;50.980;18.204;2022-08-21T05:11:14;9.80;;;5.90;;
57337;SDS011;43173;50.980;18.204;2022-08-21T05:13:39;9.70;;;6.10;;
57337;SDS011;43173;50.980;18.204;2022-08-21T05:16:08;8.60;;;5.70;;
57337;SDS011;43173;50.980;18.204;2022-08-21T05:18:34;10.40;;;5.80;;
57337;SDS011;43173;50.980;18.204;2022-08-21T05:20:59;10.20;;;5.50;;
57337;SDS011;43173;50.980;18.204;2022-08-21T05:23:25;9.40;;;5.40;;
57337;SDS011;43173;50.980;18.204;2022-08-21T05:25:52;10.90;;;5.30;;
57337;SDS011;43173;50.980;18.204;2022-08-21T05:28:18;11.70;;;5.10;;
57337;SDS011;43173;50.980;18.204;2022-08-21T05:30:44;8.70;;;5.40;;
57337;SDS011;43173;50.980;18.204;2022-08-21T05:33:10;9.10;;;4.60;;
57337;SDS011;43173;50.980;18.204;2022-08-21T05:35:35;8.20;;;5.00;;
57337;SDS011;43173;50.980;18.204;2022-08-21T05:38:01;9.90;;;4.80;;
57337;SDS011;43173;50.980;18.204;2022-08-21T05:40:28;5.90;;;4.60;;
57337;SDS011;43173;50.980;18.204;2022-08-21T05:42:54;7.40;;;4.60;;
57337;SDS011;43173;50.980;18.204;2022-08-21T05:45:25;8.80;;;4.70;;
57337;SDS011;43173;50.980;18.204;2022-08-21T05:47:53;7.90;;;4.20;;
57337;SDS011;43173;50.980;18.204;2022-08-21T05:50:18;9.80;;;4.50;;
57337;SDS011;43173;50.980;18.204;2022-08-21T05:52:44;12.10;;;4.80;;
57337;SDS011;43173;50.980;18.204;2022-08-21T05:55:12;5.40;;;4.20;;
57337;SDS011;43173;50.980;18.204;2022-08-21T05:57:38;8.90;;;4.10;;
57337;SDS011;43173;50.980;18.204;2022-08-21T06:00:06;8.60;;;3.60;;
57337;SDS011;43173;50.980;18.204;2022-08-21T06:02:35;13.10;;;4.70;;
57337;SDS011;43173;50.980;18.204;2022-08-21T06:05:00;9.90;;;4.20;;
57337;SDS011;43173;50.980;18.204;2022-08-21T06:07:26;6.70;;;4.50;;
57337;SDS011;43173;50.980;18.204;2022-08-21T06:09:52;9.30;;;4.20;;
57337;SDS011;43173;50.980;18.204;2022-08-21T06:12:18;7.90;;;4.60;;
57337;SDS011;43173;50.980;18.204;2022-08-21T06:14:43;7.90;;;4.70;;
57337;SDS011;43173;50.980;18.204;2022-08-21T06:17:10;6.80;;;4.60;;
57337;SDS011;43173;50.980;18.204;2022-08-21T06:19:37;10.10;;;5.20;;
57337;SDS011;43173;50.980;18.204;2022-08-21T06:22:03;10.90;;;5.90;;
57337;SDS011;43173;50.980;18.204;2022-08-21T06:24:29;11.10;;;5.20;;
57337;SDS011;43173;50.980;18.204;2022-08-21T06:26:55;8.60;;;5.70;;
57337;SDS011;43173;50.980;18.204;2022-08-21T06:29:21;12.10;;;6.50;;
57337;SDS011;43173;50.980;18.204;2022-08-21T06:31:47;12.80;;;7.30;;
57337;SDS011;43173;50.980;18.204;2022-08-21T06:34:15;16.80;;;9.00;;
57337;SDS011;43173;50.980;18.204;2022-08-21T06:36:40;11.30;;;7.20;;
57337;SDS011;43173;50.980;18.204;2022-08-21T06:39:06;13.60;;;7.70;;
57337;SDS011;43173;50.980;18.204;2022-08-21T06:41:32;10.20;;;7.50;;
57337;SDS011;43173;50.980;18.204;2022-08-21T06:43:57;10.90;;;7.60;;
57337;SDS011;43173;50.980;18.204;2022-08-21T06:46:23;11.80;;;7.20;;
57337;SDS011;43173;50.980;18.204;2022-08-21T06:48:50;11.60;;;6.80;;
57337;SDS011;43173;50.980;18.204;2022-08-21T06:51:16;9.30;;;6.60;;
57337;SDS011;43173;50.980;18.204;2022-08-21T06:53:42;12.40;;;7.10;;
57337;SDS011;43173;50.980;18.204;2022-08-21T06:56:09;12.20;;;6.80;;
57337;SDS011;43173;50.980;18.204;2022-08-21T06:58:34;10.80;;;6.30;;
57337;SDS011;43173;50.980;18.204;2022-08-21T07:01:01;10.50;;;6.90;;
57337;SDS011;43173;50.980;18.204;2022-08-21T07:03:31;12.30;;;7.40;;
57337;SDS011;43173;50.980;18.204;2022-08-21T07:05:59;10.20;;;5.40;;
57337;SDS011;43173;50.980;18.204;2022-08-21T07:08:26;8.20;;;4.00;;
57337;SDS011;43173;50.980;18.204;2022-08-21T07:10:53;9.10;;;4.90;;
57337;SDS011;43173;50.980;18.204;2022-08-21T07:13:19;9.20;;;5.20;;
57337;SDS011;43173;50.980;18.204;2022-08-21T07:15:45;8.10;;;4.40;;
57337;SDS011;43173;50.980;18.204;2022-08-21T07:18:11;9.40;;;4.30;;
57337;SDS011;43173;50.980;18.204;2022-08-21T07:20:38;8.10;;;3.80;;
57337;SDS011;43173;50.980;18.204;2022-08-21T07:23:06;5.00;;;2.90;;
57337;SDS011;43173;50.980;18.204;2022-08-21T07:25:34;4.20;;;2.40;;
57337;SDS011;43173;50.980;18.204;2022-08-21T07:28:00;3.90;;;2.10;;
57337;SDS011;43173;50.980;18.204;2022-08-21T07:30:26;3.20;;;1.40;;
57337;SDS011;43173;50.980;18.204;2022-08-21T07:32:51;3.50;;;1.20;;
57337;SDS011;43173;50.980;18.204;2022-08-21T07:35:18;2.40;;;1.20;;
57337;SDS011;43173;50.980;18.204;2022-08-21T07:37:47;2.90;;;1.10;;
57337;SDS011;43173;50.980;18.204;2022-08-21T07:40:12;24.90;;;1.40;;
57337;SDS011;43173;50.980;18.204;2022-08-21T07:42:42;4.80;;;1.40;;
57337;SDS011;43173;50.980;18.204;2022-08-21T07:45:12;4.10;;;1.40;;
57337;SDS011;43173;50.980;18.204;2022-08-21T07:47:39;2.60;;;1.30;;
57337;SDS011;43173;50.980;18.204;2022-08-21T07:50:05;1.80;;;1.00;;
57337;SDS011;43173;50.980;18.204;2022-08-21T07:52:32;2.40;;;1.00;;
57337;SDS011;43173;50.980;18.204;2022-08-21T07:54:58;2.00;;;0.80;;
57337;SDS011;43173;50.980;18.204;2022-08-21T07:57:24;1.60;;;0.70;;
57337;SDS011;43173;50.980;18.204;2022-08-21T07:59:50;1.00;;;0.50;;
57337;SDS011;43173;50.980;18.204;2022-08-21T08:02:25;1.70;;;0.80;;
57337;SDS011;43173;50.980;18.204;2022-08-21T08:04:51;1.40;;;0.60;;
57337;SDS011;43173;50.980;18.204;2022-08-21T08:07:17;0.60;;;0.30;;
57337;SDS011;43173;50.980;18.204;2022-08-21T08:09:43;0.80;;;0.50;;
57337;SDS011;43173;50.980;18.204;2022-08-21T08:12:09;1.60;;;0.50;;
57337;SDS011;43173;50.980;18.204;2022-08-21T08:14:35;1.40;;;0.40;;
57337;SDS011;43173;50.980;18.204;2022-08-21T08:17:01;1.30;;;0.50;;
57337;SDS011;43173;50.980;18.204;2022-08-21T08:19:28;0.30;;;0.30;;
57337;SDS011;43173;50.980;18.204;2022-08-21T08:21:54;0.50;;;0.50;;
57337;SDS011;43173;50.980;18.204;2022-08-21T08:24:20;0.90;;;0.60;;
57337;SDS011;43173;50.980;18.204;2022-08-21T08:26:46;1.00;;;0.60;;
57337;SDS011;43173;50.980;18.204;2022-08-21T08:29:12;1.00;;;0.50;;
57337;SDS011;43173;50.980;18.204;2022-08-21T08:31:38;1.80;;;0.50;;
57337;SDS011;43173;50.980;18.204;2022-08-21T08:34:04;0.50;;;0.40;;
57337;SDS011;43173;50.980;18.204;2022-08-21T08:36:36;1.20;;;0.50;;
57337;SDS011;43173;50.980;18.204;2022-08-21T08:39:02;0.60;;;0.40;;
57337;SDS011;43173;50.980;18.204;2022-08-21T08:41:29;0.90;;;0.50;;
57337;SDS011;43173;50.980;18.204;2022-08-21T08:43:58;0.80;;;0.40;;
57337;SDS011;43173;50.980;18.204;2022-08-21T08:46:58;0.70;;;0.30;;
57337;SDS011;43173;50.980;18.204;2022-08-21T08:49:18;1.40;;;0.60;;
57337;SDS011;43173;50.980;18.204;2022-08-21T08:54:28;0.50;;;0.30;;
57337;SDS011;43173;50.980;18.204;2022-08-21T08:57:07;0.70;;;0.40;;
57337;SDS011;43173;50.980;18.204;2022-08-21T08:59:38;0.60;;;0.40;;
57337;SDS011;43173;50.980;18.204;2022-08-21T09:02:05;0.60;;;0.40;;
57337;SDS011;43173;50.980;18.204;2022-08-21T09:04:31;0.50;;;0.40;;
57337;SDS011;43173;50.980;18.204;2022-08-21T09:15:07;0.90;;;0.50;;
57337;SDS011;43173;50.980;18.204;2022-08-21T09:25:32;0.50;;;0.50;;
57337;SDS011;43173;50.980;18.204;2022-08-21T09:28:00;0.70;;;0.40;;
57337;SDS011;43173;50.980;18.204;2022-08-21T09:30:30;0.80;;;0.50;;
57337;SDS011;43173;50.980;18.204;2022-08-21T09:32:57;0.80;;;0.70;;
57337;SDS011;43173;50.980;18.204;2022-08-21T09:35:23;0.40;;;0.40;;
57337;SDS011;43173;50.980;18.204;2022-08-21T09:37:54;0.50;;;0.50;;
57337;SDS011;43173;50.980;18.204;2022-08-21T09:45:37;0.60;;;0.60;;
57337;SDS011;43173;50.980;18.204;2022-08-21T09:50:50;1.00;;;0.60;;
57337;SDS011;43173;50.980;18.204;2022-08-21T09:56:04;0.80;;;0.70;;
57337;SDS011;43173;50.980;18.204;2022-08-21T09:58:59;0.90;;;0.60;;
57337;SDS011;43173;50.980;18.204;2022-08-21T10:01:25;1.20;;;0.60;;
57337;SDS011;43173;50.980;18.204;2022-08-21T10:06:35;0.90;;;0.70;;
57337;SDS011;43173;50.980;18.204;2022-08-21T10:11:34;0.60;;;0.60;;
57337;SDS011;43173;50.980;18.204;2022-08-21T10:20:02;0.90;;;0.90;;
57337;SDS011;43173;50.980;18.204;2022-08-21T10:25:37;2.10;;;1.30;;
57337;SDS011;43173;50.980;18.204;2022-08-21T10:28:26;1.40;;;1.30;;
57337;SDS011;43173;50.980;18.204;2022-08-21T10:31:13;1.30;;;1.20;;
57337;SDS011;43173;50.980;18.204;2022-08-21T10:36:35;1.80;;;1.40;;
57337;SDS011;43173;50.980;18.204;2022-08-21T11:01:47;3.40;;;3.10;;
57337;SDS011;43173;50.980;18.204;2022-08-21T11:04:37;5.00;;;4.60;;
57337;SDS011;43173;50.980;18.204;2022-08-21T11:09:54;5.20;;;4.80;;
57337;SDS011;43173;50.980;18.204;2022-08-21T11:17:47;6.10;;;5.60;;
57337;SDS011;43173;50.980;18.204;2022-08-21T11:23:17;9.10;;;7.00;;
57337;SDS011;43173;50.980;18.204;2022-08-21T11:25:48;7.70;;;7.00;;
57337;SDS011;43173;50.980;18.204;2022-08-21T11:28:20;8.40;;;7.00;;
57337;SDS011;43173;50.980;18.204;2022-08-21T11:33:30;8.00;;;7.20;;
57337;SDS011;43173;50.980;18.204;2022-08-21T11:38:40;6.10;;;5.50;;
57337;SDS011;43173;50.980;18.204;2022-08-21T11:44:04;7.50;;;6.60;;
57337;SDS011;43173;50.980;18.204;2022-08-21T11:46:57;8.80;;;7.70;;
57337;SDS011;43173;50.980;18.204;2022-08-21T11:52:50;7.00;;;6.30;;
57337;SDS011;43173;50.980;18.204;2022-08-21T11:58:07;6.30;;;5.70;;
57337;SDS011;43173;50.980;18.204;2022-08-21T12:00:44;5.50;;;5.00;;
57337;SDS011;43173;50.980;18.204;2022-08-21T12:05:52;6.60;;;5.90;;
57337;SDS011;43173;50.980;18.204;2022-08-21T12:13:52;7.10;;;6.40;;
57337;SDS011;43173;50.980;18.204;2022-08-21T12:19:09;6.80;;;5.40;;
57337;SDS011;43173;50.980;18.204;2022-08-21T12:24:38;8.30;;;7.10;;
57337;SDS011;43173;50.980;18.204;2022-08-21T12:29:59;6.40;;;5.10;;
57337;SDS011;43173;50.980;18.204;2022-08-21T12:35:14;6.80;;;6.10;;
57337;SDS011;43173;50.980;18.204;2022-08-21T12:37:44;7.90;;;6.20;;
57337;SDS011;43173;50.980;18.204;2022-08-21T12:42:57;10.10;;;6.60;;
57337;SDS011;43173;50.980;18.204;2022-08-21T12:50:58;7.80;;;5.60;;
57337;SDS011;43173;50.980;18.204;2022-08-21T12:53:49;6.50;;;5.80;;
57337;SDS011;43173;50.980;18.204;2022-08-21T12:56:19;8.70;;;6.50;;
57337;SDS011;43173;50.980;18.204;2022-08-21T12:58:49;8.20;;;6.50;;
57337;SDS011;43173;50.980;18.204;2022-08-21T13:01:26;7.60;;;6.10;;
57337;SDS011;43173;50.980;18.204;2022-08-21T13:03:55;7.80;;;6.00;;
57337;SDS011;43173;50.980;18.204;2022-08-21T13:06:28;8.80;;;6.60;;
57337;SDS011;43173;50.980;18.204;2022-08-21T13:08:58;8.60;;;6.60;;
57337;SDS011;43173;50.980;18.204;2022-08-21T13:11:31;7.60;;;6.50;;
57337;SDS011;43173;50.980;18.204;2022-08-21T13:13:57;7.40;;;6.10;;
57337;SDS011;43173;50.980;18.204;2022-08-21T13:16:27;6.90;;;6.10;;
57337;SDS011;43173;50.980;18.204;2022-08-21T13:18:58;8.00;;;6.70;;
57337;SDS011;43173;50.980;18.204;2022-08-21T13:21:27;7.80;;;6.40;;
57337;SDS011;43173;50.980;18.204;2022-08-21T13:27:01;6.80;;;6.20;;
57337;SDS011;43173;50.980;18.204;2022-08-21T13:29:33;7.80;;;6.20;;
57337;SDS011;43173;50.980;18.204;2022-08-21T13:32:03;6.90;;;5.90;;
57337;SDS011;43173;50.980;18.204;2022-08-21T13:34:36;6.80;;;5.80;;
57337;SDS011;43173;50.980;18.204;2022-08-21T13:37:04;6.00;;;5.30;;
57337;SDS011;43173;50.980;18.204;2022-08-21T13:39:31;8.60;;;5.60;;
57337;SDS011;43173;50.980;18.204;2022-08-21T13:41:59;6.30;;;5.30;;
57337;SDS011;43173;50.980;18.204;2022-08-21T13:44:35;8.70;;;5.80;;
57337;SDS011;43173;50.980;18.204;2022-08-21T13:47:05;7.20;;;5.10;;
57337;SDS011;43173;50.980;18.204;2022-08-21T13:49:34;5.80;;;4.80;;
57337;SDS011;43173;50.980;18.204;2022-08-21T13:52:03;5.80;;;4.60;;
57337;SDS011;43173;50.980;18.204;2022-08-21T13:54:34;5.00;;;4.40;;
57337;SDS011;43173;50.980;18.204;2022-08-21T13:57:02;5.70;;;4.70;;
57337;SDS011;43173;50.980;18.204;2022-08-21T13:59:31;4.80;;;4.30;;
57337;SDS011;43173;50.980;18.204;2022-08-21T14:01:59;4.90;;;3.80;;
57337;SDS011;43173;50.980;18.204;2022-08-21T14:07:17;5.10;;;4.60;;
57337;SDS011;43173;50.980;18.204;2022-08-21T14:09:51;5.70;;;5.00;;
57337;SDS011;43173;50.980;18.204;2022-08-21T14:12:19;5.60;;;4.40;;
57337;SDS011;43173;50.980;18.204;2022-08-21T14:14:55;5.20;;;4.10;;
57337;SDS011;43173;50.980;18.204;2022-08-21T14:20:07;5.10;;;4.20;;
57337;SDS011;43173;50.980;18.204;2022-08-21T14:22:37;4.90;;;4.40;;
57337;SDS011;43173;50.980;18.204;2022-08-21T14:25:06;4.30;;;3.60;;
57337;SDS011;43173;50.980;18.204;2022-08-21T14:30:27;4.30;;;3.20;;
57337;SDS011;43173;50.980;18.204;2022-08-21T14:32:59;5.50;;;4.90;;
57337;SDS011;43173;50.980;18.204;2022-08-21T14:35:25;4.10;;;3.60;;
57337;SDS011;43173;50.980;18.204;2022-08-21T14:37:51;6.60;;;4.50;;
57337;SDS011;43173;50.980;18.204;2022-08-21T14:40:19;5.70;;;4.60;;
57337;SDS011;43173;50.980;18.204;2022-08-21T14:42:47;5.70;;;3.80;;
57337;SDS011;43173;50.980;18.204;2022-08-21T14:47:46;4.20;;;3.80;;
57337;SDS011;43173;50.980;18.204;2022-08-21T14:50:12;7.00;;;4.90;;
57337;SDS011;43173;50.980;18.204;2022-08-21T14:52:38;4.30;;;3.80;;
57337;SDS011;43173;50.980;18.204;2022-08-21T14:55:05;7.40;;;4.80;;
57337;SDS011;43173;50.980;18.204;2022-08-21T14:57:32;3.40;;;3.10;;
57337;SDS011;43173;50.980;18.204;2022-08-21T14:59:58;3.80;;;3.40;;
57337;SDS011;43173;50.980;18.204;2022-08-21T15:02:25;5.30;;;4.50;;
57337;SDS011;43173;50.980;18.204;2022-08-21T15:04:51;8.30;;;5.20;;
57337;SDS011;43173;50.980;18.204;2022-08-21T15:07:17;5.80;;;4.70;;
57337;SDS011;43173;50.980;18.204;2022-08-21T15:09:43;5.30;;;4.50;;
57337;SDS011;43173;50.980;18.204;2022-08-21T15:12:08;3.40;;;3.00;;
57337;SDS011;43173;50.980;18.204;2022-08-21T15:14:36;7.30;;;4.90;;
57337;SDS011;43173;50.980;18.204;2022-08-21T15:17:04;5.60;;;5.00;;
57337;SDS011;43173;50.980;18.204;2022-08-21T15:19:31;10.30;;;5.60;;
57337;SDS011;43173;50.980;18.204;2022-08-21T15:21:57;6.80;;;5.20;;
57337;SDS011;43173;50.980;18.204;2022-08-21T15:24:23;8.30;;;5.80;;
57337;SDS011;43173;50.980;18.204;2022-08-21T15:26:49;7.60;;;5.30;;
57337;SDS011;43173;50.980;18.204;2022-08-21T15:29:16;8.50;;;6.30;;
57337;SDS011;43173;50.980;18.204;2022-08-21T15:31:49;9.20;;;6.00;;
57337;SDS011;43173;50.980;18.204;2022-08-21T15:34:19;7.30;;;5.80;;
57337;SDS011;43173;50.980;18.204;2022-08-21T15:36:45;7.60;;;6.50;;
57337;SDS011;43173;50.980;18.204;2022-08-21T15:39:11;10.20;;;7.10;;
57337;SDS011;43173;50.980;18.204;2022-08-21T15:41:37;9.90;;;7.20;;
57337;SDS011;43173;50.980;18.204;2022-08-21T15:44:02;8.70;;;7.10;;
57337;SDS011;43173;50.980;18.204;2022-08-21T15:46:28;9.90;;;7.70;;
57337;SDS011;43173;50.980;18.204;2022-08-21T15:48:53;11.30;;;8.90;;
57337;SDS011;43173;50.980;18.204;2022-08-21T15:51:19;13.30;;;8.90;;
57337;SDS011;43173;50.980;18.204;2022-08-21T15:53:45;10.80;;;9.20;;
57337;SDS011;43173;50.980;18.204;2022-08-21T15:56:16;11.60;;;9.20;;
57337;SDS011;43173;50.980;18.204;2022-08-21T15:58:47;14.10;;;9.30;;
57337;SDS011;43173;50.980;18.204;2022-08-21T16:01:14;10.20;;;9.00;;
57337;SDS011;43173;50.980;18.204;2022-08-21T16:03:40;12.60;;;9.10;;
57337;SDS011;43173;50.980;18.204;2022-08-21T16:06:06;10.50;;;7.70;;
57337;SDS011;43173;50.980;18.204;2022-08-21T16:08:32;14.10;;;9.60;;
57337;SDS011;43173;50.980;18.204;2022-08-21T16:10:58;10.10;;;8.10;;
57337;SDS011;43173;50.980;18.204;2022-08-21T16:13:28;12.60;;;9.40;;
57337;SDS011;43173;50.980;18.204;2022-08-21T16:16:01;14.10;;;10.70;;
57337;SDS011;43173;50.980;18.204;2022-08-21T16:18:26;12.40;;;9.10;;
57337;SDS011;43173;50.980;18.204;2022-08-21T16:20:52;12.20;;;9.50;;
57337;SDS011;43173;50.980;18.204;2022-08-21T16:23:17;13.30;;;10.40;;
57337;SDS011;43173;50.980;18.204;2022-08-21T16:25:43;9.60;;;7.10;;
57337;SDS011;43173;50.980;18.204;2022-08-21T16:28:10;15.40;;;11.30;;
57337;SDS011;43173;50.980;18.204;2022-08-21T16:30:39;13.00;;;10.80;;
57337;SDS011;43173;50.980;18.204;2022-08-21T16:33:05;15.70;;;12.30;;
57337;SDS011;43173;50.980;18.204;2022-08-21T16:35:33;15.60;;;11.80;;
57337;SDS011;43173;50.980;18.204;2022-08-21T16:37:59;17.10;;;12.10;;
57337;SDS011;43173;50.980;18.204;2022-08-21T16:40:25;15.60;;;11.20;;
57337;SDS011;43173;50.980;18.204;2022-08-21T16:42:52;15.70;;;13.10;;
57337;SDS011;43173;50.980;18.204;2022-08-21T16:45:18;14.30;;;11.30;;
57337;SDS011;43173;50.980;18.204;2022-08-21T16:47:48;17.60;;;12.70;;
57337;SDS011;43173;50.980;18.204;2022-08-21T16:50:14;13.70;;;11.60;;
57337;SDS011;43173;50.980;18.204;2022-08-21T16:52:41;16.30;;;12.80;;